sensor_id;sensor_type;location;lat;lon;timestamp;P1;durP1;ratioP1;P2;durP2;ratioP2
11911;SDS011;6016;41.928;25.556;2023-12-22T00:02:22;39.38;;;15.77;;
11911;SDS011;6016;41.928;25.556;2023-12-22T00:04:51;36.38;;;17.75;;
11911;SDS011;6016;41.928;25.556;2023-12-22T00:07:18;36.45;;;17.92;;
11911;SDS011;6016;41.928;25.556;2023-12-22T00:09:46;40.47;;;19.33;;
11911;SDS011;6016;41.928;25.556;2023-12-22T00:12:13;44.35;;;20.50;;
11911;SDS011;6016;41.928;25.556;2023-12-22T00:14:40;44.10;;;21.30;;
11911;SDS011;6016;41.928;25.556;2023-12-22T00:17:07;46.35;;;20.85;;
11911;SDS011;6016;41.928;25.556;2023-12-22T00:19:34;37.65;;;19.77;;
11911;SDS011;6016;41.928;25.556;2023-12-22T00:22:01;29.98;;;13.80;;
11911;SDS011;6016;41.928;25.556;2023-12-22T00:24:30;32.90;;;14.55;;
11911;SDS011;6016;41.928;25.556;2023-12-22T00:26:57;45.92;;;18.90;;
11911;SDS011;6016;41.928;25.556;2023-12-22T00:29:24;32.08;;;13.93;;
11911;SDS011;6016;41.928;25.556;2023-12-22T00:31:53;27.75;;;11.85;;
11911;SDS011;6016;41.928;25.556;2023-12-22T00:34:21;26.50;;;12.95;;
11911;SDS011;6016;41.928;25.556;2023-12-22T00:36:48;23.98;;;11.63;;
11911;SDS011;6016;41.928;25.556;2023-12-22T00:39:15;24.38;;;11.02;;
11911;SDS011;6016;41.928;25.556;2023-12-22T00:41:44;25.10;;;12.02;;
11911;SDS011;6016;41.928;25.556;2023-12-22T00:44:11;25.55;;;11.80;;
11911;SDS011;6016;41.928;25.556;2023-12-22T00:46:37;21.38;;;10.07;;
11911;SDS011;6016;41.928;25.556;2023-12-22T00:49:04;27.17;;;10.65;;
11911;SDS011;6016;41.928;25.556;2023-12-22T00:51:32;19.90;;;9.48;;
11911;SDS011;6016;41.928;25.556;2023-12-22T00:53:59;23.58;;;9.63;;
11911;SDS011;6016;41.928;25.556;2023-12-22T00:56:26;33.72;;;14.00;;
11911;SDS011;6016;41.928;25.556;2023-12-22T00:58:55;35.97;;;15.18;;
11911;SDS011;6016;41.928;25.556;2023-12-22T01:01:22;24.40;;;9.70;;
11911;SDS011;6016;41.928;25.556;2023-12-22T01:03:49;43.55;;;13.90;;
11911;SDS011;6016;41.928;25.556;2023-12-22T01:06:16;25.85;;;9.52;;
11911;SDS011;6016;41.928;25.556;2023-12-22T01:08:43;23.40;;;9.90;;
11911;SDS011;6016;41.928;25.556;2023-12-22T01:11:10;35.30;;;12.32;;
11911;SDS011;6016;41.928;25.556;2023-12-22T01:13:37;25.50;;;10.85;;
11911;SDS011;6016;41.928;25.556;2023-12-22T01:16:05;20.15;;;9.18;;
11911;SDS011;6016;41.928;25.556;2023-12-22T01:18:32;25.77;;;10.52;;
11911;SDS011;6016;41.928;25.556;2023-12-22T01:21:00;33.85;;;15.25;;
11911;SDS011;6016;41.928;25.556;2023-12-22T01:23:27;34.15;;;15.15;;
11911;SDS011;6016;41.928;25.556;2023-12-22T01:25:54;33.83;;;15.05;;
11911;SDS011;6016;41.928;25.556;2023-12-22T01:28:21;36.47;;;14.30;;
11911;SDS011;6016;41.928;25.556;2023-12-22T01:30:48;37.17;;;17.25;;
11911;SDS011;6016;41.928;25.556;2023-12-22T01:33:16;34.75;;;15.77;;
11911;SDS011;6016;41.928;25.556;2023-12-22T01:35:43;33.50;;;14.68;;
11911;SDS011;6016;41.928;25.556;2023-12-22T01:38:10;29.75;;;13.45;;
11911;SDS011;6016;41.928;25.556;2023-12-22T01:40:38;23.13;;;10.98;;
11911;SDS011;6016;41.928;25.556;2023-12-22T01:43:05;27.85;;;12.05;;
11911;SDS011;6016;41.928;25.556;2023-12-22T01:45:32;32.30;;;14.35;;
11911;SDS011;6016;41.928;25.556;2023-12-22T01:47:59;33.25;;;13.85;;
11911;SDS011;6016;41.928;25.556;2023-12-22T01:50:28;29.95;;;13.35;;
11911;SDS011;6016;41.928;25.556;2023-12-22T01:52:55;35.47;;;14.55;;
11911;SDS011;6016;41.928;25.556;2023-12-22T01:55:23;36.90;;;15.00;;
11911;SDS011;6016;41.928;25.556;2023-12-22T01:57:50;32.45;;;15.13;;
11911;SDS011;6016;41.928;25.556;2023-12-22T02:00:17;30.92;;;13.73;;
11911;SDS011;6016;41.928;25.556;2023-12-22T02:02:45;29.25;;;12.18;;
11911;SDS011;6016;41.928;25.556;2023-12-22T02:05:13;25.70;;;11.32;;
11911;SDS011;6016;41.928;25.556;2023-12-22T02:07:42;29.20;;;12.75;;
11911;SDS011;6016;41.928;25.556;2023-12-22T02:10:10;28.17;;;12.50;;
11911;SDS011;6016;41.928;25.556;2023-12-22T02:12:37;27.00;;;11.95;;
11911;SDS011;6016;41.928;25.556;2023-12-22T02:15:04;30.98;;;13.07;;
11911;SDS011;6016;41.928;25.556;2023-12-22T02:17:34;71.90;;;35.58;;
11911;SDS011;6016;41.928;25.556;2023-12-22T02:20:10;67.00;;;31.55;;
11911;SDS011;6016;41.928;25.556;2023-12-22T02:22:39;37.45;;;15.63;;
11911;SDS011;6016;41.928;25.556;2023-12-22T02:25:06;30.95;;;12.85;;
11911;SDS011;6016;41.928;25.556;2023-12-22T02:27:36;23.33;;;10.60;;
11911;SDS011;6016;41.928;25.556;2023-12-22T02:30:07;19.92;;;10.20;;
11911;SDS011;6016;41.928;25.556;2023-12-22T02:32:37;24.90;;;10.65;;
11911;SDS011;6016;41.928;25.556;2023-12-22T02:35:08;21.88;;;10.65;;
11911;SDS011;6016;41.928;25.556;2023-12-22T02:37:40;24.42;;;10.05;;
11911;SDS011;6016;41.928;25.556;2023-12-22T02:40:07;20.40;;;10.38;;
11911;SDS011;6016;41.928;25.556;2023-12-22T02:42:36;24.00;;;9.90;;
11911;SDS011;6016;41.928;25.556;2023-12-22T02:45:04;21.40;;;9.52;;
11911;SDS011;6016;41.928;25.556;2023-12-22T02:47:32;20.55;;;9.73;;
11911;SDS011;6016;41.928;25.556;2023-12-22T02:49:59;19.83;;;9.07;;
11911;SDS011;6016;41.928;25.556;2023-12-22T02:52:27;19.02;;;8.57;;
11911;SDS011;6016;41.928;25.556;2023-12-22T02:54:55;19.45;;;9.10;;
11911;SDS011;6016;41.928;25.556;2023-12-22T02:57:22;23.63;;;9.48;;
11911;SDS011;6016;41.928;25.556;2023-12-22T02:59:49;23.45;;;11.15;;
11911;SDS011;6016;41.928;25.556;2023-12-22T03:02:16;24.70;;;10.43;;
11911;SDS011;6016;41.928;25.556;2023-12-22T03:04:43;30.33;;;11.35;;
11911;SDS011;6016;41.928;25.556;2023-12-22T03:07:11;29.65;;;12.23;;
11911;SDS011;6016;41.928;25.556;2023-12-22T03:09:38;31.73;;;12.82;;
11911;SDS011;6016;41.928;25.556;2023-12-22T03:12:07;46.53;;;15.32;;
11911;SDS011;6016;41.928;25.556;2023-12-22T03:14:35;36.13;;;14.13;;
11911;SDS011;6016;41.928;25.556;2023-12-22T03:17:03;30.33;;;13.10;;
11911;SDS011;6016;41.928;25.556;2023-12-22T03:19:31;27.90;;;11.90;;
11911;SDS011;6016;41.928;25.556;2023-12-22T03:21:59;27.48;;;11.43;;
11911;SDS011;6016;41.928;25.556;2023-12-22T03:24:26;21.77;;;9.10;;
11911;SDS011;6016;41.928;25.556;2023-12-22T03:26:54;18.33;;;8.38;;
11911;SDS011;6016;41.928;25.556;2023-12-22T03:29:22;16.75;;;7.82;;
11911;SDS011;6016;41.928;25.556;2023-12-22T03:31:49;14.68;;;7.43;;
11911;SDS011;6016;41.928;25.556;2023-12-22T03:34:16;23.88;;;9.82;;
11911;SDS011;6016;41.928;25.556;2023-12-22T03:36:43;25.70;;;11.60;;
11911;SDS011;6016;41.928;25.556;2023-12-22T03:39:13;34.90;;;16.77;;
11911;SDS011;6016;41.928;25.556;2023-12-22T03:41:40;28.33;;;12.68;;
11911;SDS011;6016;41.928;25.556;2023-12-22T03:44:07;26.60;;;12.32;;
11911;SDS011;6016;41.928;25.556;2023-12-22T03:46:36;26.83;;;12.30;;
11911;SDS011;6016;41.928;25.556;2023-12-22T03:49:03;30.27;;;14.07;;
11911;SDS011;6016;41.928;25.556;2023-12-22T03:51:30;24.98;;;12.55;;
11911;SDS011;6016;41.928;25.556;2023-12-22T03:53:57;48.75;;;24.98;;
11911;SDS011;6016;41.928;25.556;2023-12-22T03:56:25;25.30;;;11.77;;
11911;SDS011;6016;41.928;25.556;2023-12-22T03:58:52;24.98;;;12.13;;
11911;SDS011;6016;41.928;25.556;2023-12-22T04:01:19;29.58;;;12.27;;
11911;SDS011;6016;41.928;25.556;2023-12-22T04:03:47;33.42;;;15.73;;
11911;SDS011;6016;41.928;25.556;2023-12-22T04:06:14;17.45;;;9.32;;
11911;SDS011;6016;41.928;25.556;2023-12-22T04:08:41;32.00;;;15.43;;
11911;SDS011;6016;41.928;25.556;2023-12-22T04:11:08;21.90;;;11.38;;
11911;SDS011;6016;41.928;25.556;2023-12-22T04:13:36;20.63;;;10.13;;
11911;SDS011;6016;41.928;25.556;2023-12-22T04:16:03;22.85;;;10.30;;
11911;SDS011;6016;41.928;25.556;2023-12-22T04:18:30;29.27;;;12.05;;
11911;SDS011;6016;41.928;25.556;2023-12-22T04:20:59;17.33;;;8.48;;
11911;SDS011;6016;41.928;25.556;2023-12-22T04:23:26;14.63;;;7.55;;
11911;SDS011;6016;41.928;25.556;2023-12-22T04:25:53;13.70;;;6.45;;
11911;SDS011;6016;41.928;25.556;2023-12-22T04:28:20;13.18;;;6.65;;
11911;SDS011;6016;41.928;25.556;2023-12-22T04:30:47;15.32;;;8.32;;
11911;SDS011;6016;41.928;25.556;2023-12-22T04:33:15;41.10;;;15.82;;
11911;SDS011;6016;41.928;25.556;2023-12-22T04:35:42;17.90;;;8.38;;
11911;SDS011;6016;41.928;25.556;2023-12-22T04:38:11;19.75;;;7.75;;
11911;SDS011;6016;41.928;25.556;2023-12-22T04:40:38;18.95;;;8.55;;
11911;SDS011;6016;41.928;25.556;2023-12-22T04:43:05;13.43;;;6.10;;
11911;SDS011;6016;41.928;25.556;2023-12-22T04:45:32;12.10;;;5.80;;
11911;SDS011;6016;41.928;25.556;2023-12-22T04:47:59;13.23;;;6.38;;
11911;SDS011;6016;41.928;25.556;2023-12-22T04:50:26;15.38;;;7.72;;
11911;SDS011;6016;41.928;25.556;2023-12-22T04:52:53;16.85;;;7.47;;
11911;SDS011;6016;41.928;25.556;2023-12-22T04:55:21;15.52;;;9.23;;
11911;SDS011;6016;41.928;25.556;2023-12-22T04:57:48;18.35;;;9.57;;
11911;SDS011;6016;41.928;25.556;2023-12-22T05:00:15;16.98;;;8.85;;
11911;SDS011;6016;41.928;25.556;2023-12-22T05:02:42;14.50;;;7.43;;
11911;SDS011;6016;41.928;25.556;2023-12-22T05:05:09;17.73;;;7.93;;
11911;SDS011;6016;41.928;25.556;2023-12-22T05:07:38;30.85;;;13.27;;
11911;SDS011;6016;41.928;25.556;2023-12-22T05:10:06;36.60;;;17.00;;
11911;SDS011;6016;41.928;25.556;2023-12-22T05:12:35;39.50;;;16.55;;
11911;SDS011;6016;41.928;25.556;2023-12-22T05:15:02;42.40;;;15.77;;
11911;SDS011;6016;41.928;25.556;2023-12-22T05:17:29;37.88;;;17.10;;
11911;SDS011;6016;41.928;25.556;2023-12-22T05:19:58;37.50;;;15.95;;
11911;SDS011;6016;41.928;25.556;2023-12-22T05:22:25;39.10;;;17.20;;
11911;SDS011;6016;41.928;25.556;2023-12-22T05:24:55;45.30;;;19.75;;
11911;SDS011;6016;41.928;25.556;2023-12-22T05:27:22;52.55;;;21.63;;
11911;SDS011;6016;41.928;25.556;2023-12-22T05:29:50;54.67;;;23.05;;
11911;SDS011;6016;41.928;25.556;2023-12-22T05:32:17;45.10;;;18.67;;
11911;SDS011;6016;41.928;25.556;2023-12-22T05:34:44;31.73;;;15.20;;
11911;SDS011;6016;41.928;25.556;2023-12-22T05:37:11;29.55;;;13.65;;
11911;SDS011;6016;41.928;25.556;2023-12-22T05:39:39;29.13;;;13.13;;
11911;SDS011;6016;41.928;25.556;2023-12-22T05:42:06;23.88;;;11.60;;
11911;SDS011;6016;41.928;25.556;2023-12-22T05:44:33;33.67;;;16.65;;
11911;SDS011;6016;41.928;25.556;2023-12-22T05:47:01;35.33;;;16.83;;
11911;SDS011;6016;41.928;25.556;2023-12-22T05:49:29;28.25;;;13.48;;
11911;SDS011;6016;41.928;25.556;2023-12-22T05:51:56;39.78;;;20.65;;
11911;SDS011;6016;41.928;25.556;2023-12-22T05:54:23;48.00;;;22.67;;
11911;SDS011;6016;41.928;25.556;2023-12-22T05:56:50;57.63;;;26.05;;
11911;SDS011;6016;41.928;25.556;2023-12-22T05:59:19;53.17;;;23.80;;
11911;SDS011;6016;41.928;25.556;2023-12-22T06:01:46;56.03;;;25.13;;
11911;SDS011;6016;41.928;25.556;2023-12-22T06:04:15;56.30;;;23.83;;
11911;SDS011;6016;41.928;25.556;2023-12-22T06:06:42;51.65;;;22.70;;
11911;SDS011;6016;41.928;25.556;2023-12-22T06:09:09;56.78;;;22.92;;
11911;SDS011;6016;41.928;25.556;2023-12-22T06:11:38;50.80;;;21.58;;
11911;SDS011;6016;41.928;25.556;2023-12-22T06:14:05;60.55;;;29.00;;
11911;SDS011;6016;41.928;25.556;2023-12-22T06:16:32;58.40;;;27.90;;
11911;SDS011;6016;41.928;25.556;2023-12-22T06:18:59;52.70;;;26.08;;
11911;SDS011;6016;41.928;25.556;2023-12-22T06:21:28;60.00;;;29.42;;
11911;SDS011;6016;41.928;25.556;2023-12-22T06:23:55;81.00;;;37.35;;
11911;SDS011;6016;41.928;25.556;2023-12-22T06:26:22;99.82;;;43.10;;
11911;SDS011;6016;41.928;25.556;2023-12-22T06:28:49;84.07;;;37.58;;
11911;SDS011;6016;41.928;25.556;2023-12-22T06:31:16;85.72;;;36.22;;
11911;SDS011;6016;41.928;25.556;2023-12-22T06:33:45;82.15;;;35.05;;
11911;SDS011;6016;41.928;25.556;2023-12-22T06:36:17;83.65;;;37.75;;
11911;SDS011;6016;41.928;25.556;2023-12-22T06:38:46;84.82;;;38.53;;
11911;SDS011;6016;41.928;25.556;2023-12-22T06:41:20;80.15;;;35.67;;
11911;SDS011;6016;41.928;25.556;2023-12-22T06:43:48;77.53;;;33.60;;
11911;SDS011;6016;41.928;25.556;2023-12-22T06:46:16;79.07;;;35.60;;
11911;SDS011;6016;41.928;25.556;2023-12-22T06:48:43;78.75;;;34.28;;
11911;SDS011;6016;41.928;25.556;2023-12-22T06:51:16;72.93;;;31.50;;
11911;SDS011;6016;41.928;25.556;2023-12-22T06:53:44;72.28;;;31.58;;
11911;SDS011;6016;41.928;25.556;2023-12-22T06:56:16;82.03;;;37.30;;
11911;SDS011;6016;41.928;25.556;2023-12-22T06:58:44;86.82;;;40.08;;
11911;SDS011;6016;41.928;25.556;2023-12-22T07:01:17;96.53;;;46.13;;
11911;SDS011;6016;41.928;25.556;2023-12-22T07:03:45;76.50;;;37.65;;
11911;SDS011;6016;41.928;25.556;2023-12-22T07:06:13;104.03;;;51.35;;
11911;SDS011;6016;41.928;25.556;2023-12-22T07:08:40;79.68;;;38.63;;
11911;SDS011;6016;41.928;25.556;2023-12-22T07:11:08;84.70;;;37.63;;
11911;SDS011;6016;41.928;25.556;2023-12-22T07:13:36;84.30;;;36.60;;
11911;SDS011;6016;41.928;25.556;2023-12-22T07:16:04;84.82;;;38.47;;
11911;SDS011;6016;41.928;25.556;2023-12-22T07:18:32;82.18;;;38.15;;
11911;SDS011;6016;41.928;25.556;2023-12-22T07:20:59;96.68;;;39.72;;
11911;SDS011;6016;41.928;25.556;2023-12-22T07:23:27;82.75;;;38.13;;
11911;SDS011;6016;41.928;25.556;2023-12-22T07:25:54;74.07;;;32.47;;
11911;SDS011;6016;41.928;25.556;2023-12-22T07:28:20;59.83;;;29.88;;
11911;SDS011;6016;41.928;25.556;2023-12-22T07:30:49;45.03;;;21.25;;
11911;SDS011;6016;41.928;25.556;2023-12-22T07:33:16;41.08;;;18.80;;
11911;SDS011;6016;41.928;25.556;2023-12-22T07:35:43;37.63;;;18.63;;
11911;SDS011;6016;41.928;25.556;2023-12-22T07:38:10;83.32;;;37.75;;
11911;SDS011;6016;41.928;25.556;2023-12-22T07:40:37;104.13;;;44.30;;
11911;SDS011;6016;41.928;25.556;2023-12-22T07:43:04;106.82;;;45.47;;
11911;SDS011;6016;41.928;25.556;2023-12-22T07:45:31;89.00;;;39.92;;
11911;SDS011;6016;41.928;25.556;2023-12-22T07:47:59;62.47;;;28.67;;
11911;SDS011;6016;41.928;25.556;2023-12-22T07:50:26;54.25;;;25.45;;
11911;SDS011;6016;41.928;25.556;2023-12-22T07:52:54;49.45;;;24.45;;
11911;SDS011;6016;41.928;25.556;2023-12-22T07:55:21;53.60;;;25.20;;
11911;SDS011;6016;41.928;25.556;2023-12-22T07:57:48;52.65;;;24.50;;
11911;SDS011;6016;41.928;25.556;2023-12-22T08:00:16;53.97;;;26.65;;
11911;SDS011;6016;41.928;25.556;2023-12-22T08:02:43;79.43;;;38.05;;
11911;SDS011;6016;41.928;25.556;2023-12-22T08:05:12;91.05;;;39.42;;
11911;SDS011;6016;41.928;25.556;2023-12-22T08:07:39;97.72;;;43.88;;
11911;SDS011;6016;41.928;25.556;2023-12-22T08:10:07;96.75;;;43.25;;
11911;SDS011;6016;41.928;25.556;2023-12-22T08:12:34;130.27;;;56.15;;
11911;SDS011;6016;41.928;25.556;2023-12-22T08:15:01;111.18;;;51.00;;
11911;SDS011;6016;41.928;25.556;2023-12-22T08:17:29;110.97;;;49.00;;
11911;SDS011;6016;41.928;25.556;2023-12-22T08:19:56;96.28;;;44.33;;
11911;SDS011;6016;41.928;25.556;2023-12-22T08:22:25;91.20;;;41.33;;
11911;SDS011;6016;41.928;25.556;2023-12-22T08:24:52;121.78;;;54.67;;
11911;SDS011;6016;41.928;25.556;2023-12-22T08:27:19;139.40;;;61.58;;
11911;SDS011;6016;41.928;25.556;2023-12-22T08:29:46;149.43;;;63.40;;
11911;SDS011;6016;41.928;25.556;2023-12-22T08:32:13;137.85;;;57.40;;
11911;SDS011;6016;41.928;25.556;2023-12-22T08:34:40;127.43;;;55.13;;
11911;SDS011;6016;41.928;25.556;2023-12-22T08:37:07;140.18;;;57.65;;
11911;SDS011;6016;41.928;25.556;2023-12-22T08:39:36;142.70;;;60.55;;
11911;SDS011;6016;41.928;25.556;2023-12-22T08:42:03;140.30;;;63.25;;
11911;SDS011;6016;41.928;25.556;2023-12-22T08:44:30;144.50;;;65.78;;
11911;SDS011;6016;41.928;25.556;2023-12-22T08:46:57;134.82;;;61.75;;
11911;SDS011;6016;41.928;25.556;2023-12-22T08:49:24;123.93;;;57.35;;
11911;SDS011;6016;41.928;25.556;2023-12-22T08:51:52;106.22;;;48.97;;
11911;SDS011;6016;41.928;25.556;2023-12-22T08:54:19;115.97;;;48.17;;
11911;SDS011;6016;41.928;25.556;2023-12-22T08:56:47;96.03;;;45.03;;
11911;SDS011;6016;41.928;25.556;2023-12-22T08:59:14;100.45;;;44.35;;
11911;SDS011;6016;41.928;25.556;2023-12-22T09:01:41;98.90;;;43.72;;
11911;SDS011;6016;41.928;25.556;2023-12-22T09:04:09;101.93;;;47.63;;
11911;SDS011;6016;41.928;25.556;2023-12-22T09:06:37;99.90;;;45.35;;
11911;SDS011;6016;41.928;25.556;2023-12-22T09:09:04;94.22;;;44.78;;
11911;SDS011;6016;41.928;25.556;2023-12-22T09:11:32;102.85;;;44.92;;
11911;SDS011;6016;41.928;25.556;2023-12-22T09:14:01;97.10;;;44.38;;
11911;SDS011;6016;41.928;25.556;2023-12-22T09:16:28;100.93;;;43.75;;
11911;SDS011;6016;41.928;25.556;2023-12-22T09:18:55;109.93;;;50.20;;
11911;SDS011;6016;41.928;25.556;2023-12-22T09:21:22;123.22;;;52.70;;
11911;SDS011;6016;41.928;25.556;2023-12-22T09:23:49;139.27;;;58.00;;
11911;SDS011;6016;41.928;25.556;2023-12-22T09:26:16;136.73;;;55.63;;
11911;SDS011;6016;41.928;25.556;2023-12-22T09:28:43;131.60;;;54.30;;
11911;SDS011;6016;41.928;25.556;2023-12-22T09:31:12;123.40;;;50.88;;
11911;SDS011;6016;41.928;25.556;2023-12-22T09:33:39;118.38;;;50.88;;
11911;SDS011;6016;41.928;25.556;2023-12-22T09:36:07;104.43;;;49.40;;
11911;SDS011;6016;41.928;25.556;2023-12-22T09:38:35;113.45;;;50.97;;
11911;SDS011;6016;41.928;25.556;2023-12-22T09:41:02;113.78;;;51.28;;
11911;SDS011;6016;41.928;25.556;2023-12-22T09:43:30;129.23;;;59.80;;
11911;SDS011;6016;41.928;25.556;2023-12-22T09:46:01;140.80;;;62.08;;
11911;SDS011;6016;41.928;25.556;2023-12-22T09:48:30;148.27;;;67.63;;
11911;SDS011;6016;41.928;25.556;2023-12-22T09:51:00;165.25;;;73.07;;
11911;SDS011;6016;41.928;25.556;2023-12-22T09:53:29;146.38;;;63.22;;
11911;SDS011;6016;41.928;25.556;2023-12-22T09:55:58;94.75;;;41.70;;
11911;SDS011;6016;41.928;25.556;2023-12-22T09:58:25;81.75;;;37.35;;
11911;SDS011;6016;41.928;25.556;2023-12-22T10:00:53;81.45;;;36.88;;
11911;SDS011;6016;41.928;25.556;2023-12-22T10:03:21;77.55;;;35.03;;
11911;SDS011;6016;41.928;25.556;2023-12-22T10:05:52;120.90;;;49.78;;
11911;SDS011;6016;41.928;25.556;2023-12-22T10:08:19;113.13;;;47.20;;
11911;SDS011;6016;41.928;25.556;2023-12-22T10:10:47;100.25;;;41.92;;
11911;SDS011;6016;41.928;25.556;2023-12-22T10:13:17;84.05;;;35.30;;
11911;SDS011;6016;41.928;25.556;2023-12-22T10:15:44;72.82;;;33.67;;
11911;SDS011;6016;41.928;25.556;2023-12-22T10:18:13;70.35;;;31.25;;
11911;SDS011;6016;41.928;25.556;2023-12-22T10:20:40;77.15;;;34.60;;
11911;SDS011;6016;41.928;25.556;2023-12-22T10:23:10;77.55;;;34.03;;
11911;SDS011;6016;41.928;25.556;2023-12-22T10:25:37;83.35;;;36.83;;
11911;SDS011;6016;41.928;25.556;2023-12-22T10:28:09;87.68;;;37.67;;
11911;SDS011;6016;41.928;25.556;2023-12-22T10:30:38;98.22;;;42.35;;
11911;SDS011;6016;41.928;25.556;2023-12-22T10:33:07;117.20;;;50.47;;
11911;SDS011;6016;41.928;25.556;2023-12-22T10:35:34;121.15;;;53.38;;
11911;SDS011;6016;41.928;25.556;2023-12-22T10:38:01;130.60;;;56.00;;
11911;SDS011;6016;41.928;25.556;2023-12-22T10:40:30;134.38;;;55.88;;
11911;SDS011;6016;41.928;25.556;2023-12-22T10:42:57;120.30;;;48.22;;
11911;SDS011;6016;41.928;25.556;2023-12-22T10:45:25;97.68;;;39.28;;
11911;SDS011;6016;41.928;25.556;2023-12-22T10:47:54;72.97;;;29.40;;
11911;SDS011;6016;41.928;25.556;2023-12-22T10:50:21;55.13;;;22.48;;
11911;SDS011;6016;41.928;25.556;2023-12-22T10:52:49;69.47;;;27.23;;
11911;SDS011;6016;41.928;25.556;2023-12-22T10:55:17;56.50;;;23.98;;
11911;SDS011;6016;41.928;25.556;2023-12-22T10:57:46;58.83;;;24.00;;
11911;SDS011;6016;41.928;25.556;2023-12-22T11:00:14;39.63;;;17.23;;
11911;SDS011;6016;41.928;25.556;2023-12-22T11:02:42;34.67;;;14.02;;
11911;SDS011;6016;41.928;25.556;2023-12-22T11:05:13;33.25;;;15.63;;
11911;SDS011;6016;41.928;25.556;2023-12-22T11:07:44;43.03;;;18.73;;
11911;SDS011;6016;41.928;25.556;2023-12-22T11:10:14;42.00;;;19.55;;
11911;SDS011;6016;41.928;25.556;2023-12-22T11:12:48;47.45;;;21.42;;
11911;SDS011;6016;41.928;25.556;2023-12-22T11:15:16;49.97;;;23.10;;
11911;SDS011;6016;41.928;25.556;2023-12-22T11:17:45;58.17;;;25.83;;
11911;SDS011;6016;41.928;25.556;2023-12-22T11:20:16;72.13;;;32.08;;
11911;SDS011;6016;41.928;25.556;2023-12-22T11:22:44;69.03;;;32.97;;
11911;SDS011;6016;41.928;25.556;2023-12-22T11:25:11;82.30;;;37.67;;
11911;SDS011;6016;41.928;25.556;2023-12-22T11:27:41;93.10;;;41.28;;
11911;SDS011;6016;41.928;25.556;2023-12-22T11:30:11;84.05;;;39.42;;
11911;SDS011;6016;41.928;25.556;2023-12-22T11:32:40;113.88;;;50.60;;
11911;SDS011;6016;41.928;25.556;2023-12-22T11:35:08;99.18;;;45.40;;
11911;SDS011;6016;41.928;25.556;2023-12-22T11:37:36;86.65;;;36.42;;
11911;SDS011;6016;41.928;25.556;2023-12-22T11:40:05;87.15;;;37.72;;
11911;SDS011;6016;41.928;25.556;2023-12-22T11:42:33;65.53;;;30.65;;
11911;SDS011;6016;41.928;25.556;2023-12-22T11:45:05;70.07;;;31.27;;
11911;SDS011;6016;41.928;25.556;2023-12-22T11:47:33;41.00;;;19.50;;
11911;SDS011;6016;41.928;25.556;2023-12-22T11:50:00;41.83;;;20.05;;
11911;SDS011;6016;41.928;25.556;2023-12-22T11:52:28;29.88;;;14.15;;
11911;SDS011;6016;41.928;25.556;2023-12-22T11:54:55;31.08;;;15.10;;
11911;SDS011;6016;41.928;25.556;2023-12-22T11:57:33;28.63;;;14.38;;
11911;SDS011;6016;41.928;25.556;2023-12-22T12:00:03;25.17;;;12.35;;
11911;SDS011;6016;41.928;25.556;2023-12-22T12:02:34;21.52;;;10.80;;
11911;SDS011;6016;41.928;25.556;2023-12-22T12:05:03;26.08;;;13.02;;
11911;SDS011;6016;41.928;25.556;2023-12-22T12:07:37;21.40;;;11.55;;
11911;SDS011;6016;41.928;25.556;2023-12-22T12:10:06;29.42;;;13.02;;
11911;SDS011;6016;41.928;25.556;2023-12-22T12:12:34;37.05;;;16.38;;
11911;SDS011;6016;41.928;25.556;2023-12-22T12:15:08;39.05;;;18.08;;
11911;SDS011;6016;41.928;25.556;2023-12-22T12:17:44;30.23;;;14.75;;
11911;SDS011;6016;41.928;25.556;2023-12-22T12:20:11;28.98;;;15.18;;
11911;SDS011;6016;41.928;25.556;2023-12-22T12:22:38;38.88;;;17.42;;
11911;SDS011;6016;41.928;25.556;2023-12-22T12:25:09;95.40;;;43.45;;
11911;SDS011;6016;41.928;25.556;2023-12-22T12:27:37;142.82;;;61.92;;
11911;SDS011;6016;41.928;25.556;2023-12-22T12:30:11;124.72;;;58.95;;
11911;SDS011;6016;41.928;25.556;2023-12-22T12:32:44;107.93;;;49.60;;
11911;SDS011;6016;41.928;25.556;2023-12-22T12:35:11;103.90;;;48.72;;
11911;SDS011;6016;41.928;25.556;2023-12-22T12:37:39;107.45;;;50.67;;
11911;SDS011;6016;41.928;25.556;2023-12-22T12:40:07;131.50;;;64.10;;
11911;SDS011;6016;41.928;25.556;2023-12-22T12:42:37;142.75;;;70.95;;
11911;SDS011;6016;41.928;25.556;2023-12-22T12:45:05;140.57;;;68.30;;
11911;SDS011;6016;41.928;25.556;2023-12-22T12:47:33;157.23;;;75.93;;
11911;SDS011;6016;41.928;25.556;2023-12-22T12:50:02;156.18;;;75.93;;
11911;SDS011;6016;41.928;25.556;2023-12-22T12:52:29;143.27;;;71.30;;
11911;SDS011;6016;41.928;25.556;2023-12-22T12:54:56;139.65;;;68.10;;
11911;SDS011;6016;41.928;25.556;2023-12-22T12:57:26;119.22;;;55.05;;
11911;SDS011;6016;41.928;25.556;2023-12-22T12:59:53;88.45;;;43.03;;
11911;SDS011;6016;41.928;25.556;2023-12-22T13:02:20;76.63;;;36.47;;
11911;SDS011;6016;41.928;25.556;2023-12-22T13:04:47;49.35;;;24.75;;
11911;SDS011;6016;41.928;25.556;2023-12-22T13:07:24;58.67;;;29.35;;
11911;SDS011;6016;41.928;25.556;2023-12-22T13:09:52;45.63;;;20.15;;
11911;SDS011;6016;41.928;25.556;2023-12-22T13:12:22;42.17;;;19.80;;
11911;SDS011;6016;41.928;25.556;2023-12-22T13:14:49;46.08;;;19.58;;
11911;SDS011;6016;41.928;25.556;2023-12-22T13:17:16;37.00;;;17.65;;
11911;SDS011;6016;41.928;25.556;2023-12-22T13:19:43;34.67;;;18.65;;
11911;SDS011;6016;41.928;25.556;2023-12-22T13:22:11;45.42;;;20.25;;
11911;SDS011;6016;41.928;25.556;2023-12-22T13:24:40;50.10;;;21.35;;
11911;SDS011;6016;41.928;25.556;2023-12-22T13:27:07;54.85;;;23.88;;
11911;SDS011;6016;41.928;25.556;2023-12-22T13:29:41;51.63;;;23.33;;
11911;SDS011;6016;41.928;25.556;2023-12-22T13:32:14;52.22;;;22.98;;
11911;SDS011;6016;41.928;25.556;2023-12-22T13:37:13;65.28;;;26.70;;
11911;SDS011;6016;41.928;25.556;2023-12-22T13:39:42;81.40;;;36.00;;
11911;SDS011;6016;41.928;25.556;2023-12-22T13:42:13;81.82;;;36.45;;
11911;SDS011;6016;41.928;25.556;2023-12-22T13:44:42;94.10;;;40.47;;
11911;SDS011;6016;41.928;25.556;2023-12-22T13:47:11;101.93;;;45.85;;
11911;SDS011;6016;41.928;25.556;2023-12-22T13:49:39;89.50;;;41.20;;
11911;SDS011;6016;41.928;25.556;2023-12-22T13:52:07;73.78;;;33.30;;
11911;SDS011;6016;41.928;25.556;2023-12-22T13:54:34;68.75;;;32.03;;
11911;SDS011;6016;41.928;25.556;2023-12-22T13:57:02;67.03;;;33.05;;
11911;SDS011;6016;41.928;25.556;2023-12-22T13:59:30;81.88;;;38.25;;
11911;SDS011;6016;41.928;25.556;2023-12-22T14:01:58;86.72;;;38.75;;
11911;SDS011;6016;41.928;25.556;2023-12-22T14:04:25;74.72;;;34.75;;
11911;SDS011;6016;41.928;25.556;2023-12-22T14:06:52;67.45;;;32.03;;
11911;SDS011;6016;41.928;25.556;2023-12-22T14:09:20;59.50;;;27.30;;
11911;SDS011;6016;41.928;25.556;2023-12-22T14:11:49;57.95;;;27.63;;
11911;SDS011;6016;41.928;25.556;2023-12-22T14:14:18;60.17;;;27.15;;
11911;SDS011;6016;41.928;25.556;2023-12-22T14:16:45;54.97;;;25.38;;
11911;SDS011;6016;41.928;25.556;2023-12-22T14:19:12;50.40;;;24.70;;
11911;SDS011;6016;41.928;25.556;2023-12-22T14:21:40;54.13;;;25.80;;
11911;SDS011;6016;41.928;25.556;2023-12-22T14:24:07;65.10;;;29.17;;
11911;SDS011;6016;41.928;25.556;2023-12-22T14:29:21;49.80;;;23.58;;
11911;SDS011;6016;41.928;25.556;2023-12-22T14:31:49;46.55;;;21.63;;